Hanska, MN (56041)

2:22 AM CDT on March 26, 2017 (GMT -0500)
Thompson Farms | | Change Station

Elev 988 ft 44.17 °N, 94.38 °W | Updated 11 seconds ago

Rain
Rain
37.3 °F
Feels Like 37 °F
N
0.0
Wind Variable Wind from ENE
Gusts 0.0 mph

Today
High -- | Low -- °F
--% Chance of Precip.
Yesterday
High -- | Low -- °F
Precip. -- in
Pressure 29.96 in
Visibility 3.0 miles
Clouds Overcast 500 ft
Windchill 37 °F
Dew Point 37 °F
Humidity 98%
Rainfall 0.09 in
Snow Depth Not available.
7:09 AM 7:38 PM
Waning Crescent, 4% visible
METAR KJYG 260715Z AUTO 00000KT 3SM RA OVC005 03/02 A2996 RMK AO2 P0004
Pressure 29.96 in
Visibility 3.0 miles
Clouds Overcast 500 ft
Windchill 37 °F
Dew Point 37 °F
Humidity 98%
Rainfall 0.09 in
Snow Depth Not available.
7:09 AM 7:38 PM
Waning Crescent, 4% visible
METAR KJYG 260715Z AUTO 00000KT 3SM RA OVC005 03/02 A2996 RMK AO2 P0004

Get Severe Weather Alerts

Thanks for signing up!

Be on the lookout for a verification email in your inbox.

You'll start receiving the daily forecast at 8 AM.

×

10-Day Weather Forecast

Almanac

Astronomy

Mar. 26, 2017 Rise Set
Actual Time
Civil Twilight
Nautical Twilight
Astronomical Twilight
Moon
Length of Visible Light
Length of Day
Tomorrow will be .
, % of the Moon is Illuminated

Today's Extremes

State Highs State Lows

Community

WunderPhotos

Upload Photos

1,962,540 photos uploaded!

WunderBlog® & News

Nearby

Air Quality

  Air Quality AQ Index Pollutant
Not available.

Snow Depth

Station Depth Elevation

Earthquake Activity

City Distance Mag. Time & Date
Minimum magnitude displayed is 2.5.

Earthquake Activity

City Distance Mag. Time & Date
Minimum magnitude displayed is 2.5.

Coastal Water Temperatures

Place Temperature

Stations

Nearby Weather Stations

Station Location Temp. Windchill Dew Point Humidity Wind Precip. Elev Updated Type
                   

Watches & Warnings

There are currently no watches in effect.